Time;durP1;ratioP1;P1;durP2;ratioP2;P2;SDS_P1;SDS_P2;PMS_P1;PMS_P2;Temp;Humidity;BMP_temperature;BMP_pressure;BME280_temperature;BME280_humidity;BME280_pressure;Samples;Min_cycle;Max_cycle;Signal;HPM_P1;HPM_P2
2022/09/12 06:26:15;;;;;;;;;;;;;;;4.38;100.00;99606.56;6199814;22;19925;-84
2022/09/12 06:28:41;;;;;;;;;;;;;;;4.41;100.00;99606.50;6274985;22;19926;-85
2022/09/12 06:31:13;;;;;;;;;;;;;;;4.49;100.00;99611.59;6276505;22;19919;-87
2022/09/12 06:33:40;;;;;;;;;;;;;;;4.49;100.00;99611.59;6249462;22;19912;-88
2022/09/12 06:36:06;;;;;;;;;;;;;;;4.50;100.00;99619.44;6249392;22;19965;-86
2022/09/12 06:38:32;;;;;;;;;;;;;;;4.50;100.00;99614.19;6249399;22;19919;-87
2022/09/12 06:40:58;;;;;;;;;;;;;;;4.50;100.00;99611.56;6274956;22;19915;-87
2022/09/12 06:43:24;;;;;;;;;;;;;;;4.55;100.00;99614.94;6276196;22;19915;-86
2022/09/12 06:45:49;;;;;;;;;;;;;;;4.58;100.00;99623.63;6249632;22;19918;-86
2022/09/12 06:48:15;;;;;;;;;;;;;;;4.59;100.00;99617.50;6276335;22;19907;-86
2022/09/12 06:50:40;;;;;;;;;;;;;;;4.54;100.00;99617.59;6276336;22;19911;-86
2022/09/12 06:53:06;;;;;;;;;;;;;;;4.60;100.00;99619.25;6274689;22;19917;-86
2022/09/12 07:54:43;;;;;;;;;;;;;;;4.91;100.00;99601.03;6098682;22;19986;-94
2022/09/12 07:57:08;;;;;;;;;;;;;;;4.90;100.00;99592.31;6255253;22;19956;-94
2022/09/12 07:59:33;;;;;;;;;;;;;;;4.94;100.00;99593.09;6124572;23;20395;-89
2022/09/12 08:01:59;;;;;;;;;;;;;;;4.95;100.00;99583.47;6251121;22;19917;-93
2022/09/12 08:04:24;;;;;;;;;;;;;;;5.01;100.00;99576.31;6125351;23;19913;-91
2022/09/12 08:06:53;;;;;;;;;;;;;;;5.01;100.00;99585.94;6124493;23;19916;-91
2022/09/12 08:09:19;;;;;;;;;;;;;;;5.02;100.00;99592.94;6124794;23;19988;-88
2022/09/12 08:11:44;;;;;;;;;;;;;;;5.04;100.00;99586.75;6127627;23;19913;-87
2022/09/12 08:14:09;;;;;;;;;;;;;;;5.08;100.00;99579.66;6125585;23;19913;-87
2022/09/12 08:16:35;;;;;;;;;;;;;;;5.07;100.00;99580.53;6253541;22;20355;-88
2022/09/12 08:19:01;;;;;;;;;;;;;;;5.09;100.00;99584.03;6251107;22;19940;-90
2022/09/12 08:21:27;;;;;;;;;;;;;;;5.13;100.00;99575.16;6224907;23;19946;-87
2022/09/12 08:23:54;;;;;;;;;;;;;;;5.13;100.00;99576.91;6225021;23;20018;-95
2022/09/12 08:26:19;;;;;;;;;;;;;;;5.08;100.00;99591.00;6250976;22;19970;-92
2022/09/12 08:28:45;;;;;;;;;;;;;;;5.09;100.00;99591.91;6250657;22;19913;-92
2022/09/12 08:31:12;;;;;;;;;;;;;;;5.08;100.00;99591.00;6227054;23;19921;-87
2022/09/12 08:33:37;;;;;;;;;;;;;;;5.15;100.00;99591.72;6124683;23;19920;-90
2022/09/12 08:36:04;;;;;;;;;;;;;;;5.19;100.00;99592.53;6124059;23;19913;-84
2022/09/12 08:38:29;;;;;;;;;;;;;;;5.17;100.00;99595.19;6224854;23;20328;-88
2022/09/12 08:41:02;;;;;;;;;;;;;;;5.12;100.00;99590.94;6249294;22;19920;-86
2022/09/12 08:43:42;;;;;;;;;;;;;;;5.18;100.00;99588.19;6123309;23;19917;-86
2022/09/12 08:46:12;;;;;;;;;;;;;;;5.16;100.00;99593.47;6123247;23;20333;-89
2022/09/12 08:48:38;;;;;;;;;;;;;;;5.20;100.00;99587.25;6123525;23;19917;-84
2022/09/12 08:51:04;;;;;;;;;;;;;;;5.20;100.00;99584.63;6123925;23;19917;-91
2022/09/12 08:53:30;;;;;;;;;;;;;;;5.23;100.00;99581.91;6125013;23;19913;-89
2022/09/12 08:55:58;;;;;;;;;;;;;;;5.23;100.00;99576.66;6201397;22;19919;-85
2022/09/12 08:58:24;;;;;;;;;;;;;;;5.26;100.00;99573.97;6253987;22;20238;-88
2022/09/12 09:00:54;;;;;;;;;;;;;;;5.27;100.00;99575.69;6280900;22;20319;-90
2022/09/12 09:03:25;;;;;;;;;;;;;;;5.18;100.00;99565.38;6253085;22;20037;-89
2022/09/12 09:05:59;;;;;;;;;;;;;;;5.22;100.00;99572.31;6278548;22;19947;-88
2022/09/12 09:08:43;;;;;;;;;;;;;;;5.25;100.00;99572.22;6281937;22;19907;-94
2022/09/12 09:11:16;;;;;;;;;;;;;;;5.30;100.00;99574.75;6291727;22;19939;-96
2022/09/12 09:17:04;;;;;;;;;;;;;;;5.28;100.00;99572.16;6283068;22;20384;-89
2022/09/12 09:19:33;;;;;;;;;;;;;;;5.33;100.00;99573.78;6285649;22;19956;-94
2022/09/12 09:22:03;;;;;;;;;;;;;;;5.28;100.00;99566.91;6257669;22;19922;-92
2022/09/12 09:24:38;;;;;;;;;;;;;;;5.32;100.00;99572.09;6280030;22;20370;-93
2022/09/12 09:27:08;;;;;;;;;;;;;;;5.35;100.00;99569.38;6280966;22;19951;-88
2022/09/12 09:29:40;;;;;;;;;;;;;;;5.33;100.00;99565.91;6282994;22;19928;-92
2022/09/12 09:32:12;;;;;;;;;;;;;;;5.39;100.00;99565.75;6254834;22;19970;-88
2022/09/12 09:34:37;;;;;;;;;;;;;;;5.41;100.00;99564.84;6259108;22;19911;-90
2022/09/12 09:37:04;;;;;;;;;;;;;;;5.36;100.00;99565.84;6260112;22;19958;-94
2022/09/12 09:39:48;;;;;;;;;;;;;;;5.42;100.00;99565.69;6281569;22;19915;-94
2022/09/12 09:42:16;;;;;;;;;;;;;;;5.39;100.00;99569.28;6284642;22;19912;-92
2022/09/12 09:44:45;;;;;;;;;;;;;;;5.40;100.00;99562.25;6284829;22;19911;-96
2022/09/12 09:47:11;;;;;;;;;;;;;;;5.44;100.00;99551.63;6261882;22;19911;-89
2022/09/12 09:49:37;;;;;;;;;;;;;;;5.38;100.00;99551.78;6260778;22;20341;-96
2022/09/12 09:52:04;;;;;;;;;;;;;;;5.44;100.00;99546.34;6253250;22;19912;-89
2022/09/12 09:54:53;;;;;;;;;;;;;;;5.50;100.00;99549.72;6254936;22;19969;-93
2022/09/12 09:57:33;;;;;;;;;;;;;;;5.47;100.00;99542.78;6133551;23;19928;-91
2022/09/12 10:00:34;;;;;;;;;;;;;;;5.52;100.00;99548.78;6125920;23;19917;-87
2022/09/12 10:03:19;;;;;;;;;;;;;;;5.53;100.00;99541.75;6186807;23;19912;-92
2022/09/12 10:05:49;;;;;;;;;;;;;;;5.58;100.00;99537.25;6223761;23;19995;-88
2022/09/12 10:08:20;;;;;;;;;;;;;;;5.50;100.00;99533.97;6260358;22;19974;-89
2022/09/12 10:10:58;;;;;;;;;;;;;;;6.34;100.00;99525.53;6248932;22;20475;-89
2022/09/12 10:13:26;;;;;;;;;;;;;;;5.99;100.00;99528.25;6228639;23;19917;-89
2022/09/12 10:16:00;;;;;;;;;;;;;;;5.93;100.00;99517.88;6130295;23;19936;-87
2022/09/12 10:18:36;;;;;;;;;;;;;;;5.94;100.00;99516.97;6233205;23;19920;-91
2022/09/12 10:21:02;;;;;;;;;;;;;;;5.94;100.00;99513.50;6129920;23;19935;-87
2022/09/12 10:23:36;;;;;;;;;;;;;;;6.10;100.00;99509.53;6129423;23;19917;-93
2022/09/12 10:26:03;;;;;;;;;;;;;;;5.93;100.00;99506.50;6260341;22;19935;-91
2022/09/12 10:28:31;;;;;;;;;;;;;;;5.98;100.00;99504.63;6260940;22;19917;-90
2022/09/12 10:30:58;;;;;;;;;;;;;;;5.92;100.00;99500.38;6227937;23;19913;-89
2022/09/12 10:33:25;;;;;;;;;;;;;;;5.96;100.00;99501.16;6226817;23;19920;-89
2022/09/12 10:35:51;;;;;;;;;;;;;;;5.98;100.00;99504.63;6228651;23;19913;-91
2022/09/12 10:38:21;;;;;;;;;;;;;;;5.95;100.00;99500.31;6227932;23;20245;-89
2022/09/12 10:40:54;;;;;;;;;;;;;;;6.00;100.00;99506.31;6233871;23;19952;-88
2022/09/12 10:43:33;;;;;;;;;;;;;;;5.96;100.00;99503.78;6230205;23;19913;-91
2022/09/12 10:46:18;;;;;;;;;;;;;;;6.00;100.00;99498.44;6124077;23;19921;-89
2022/09/12 10:48:51;;;;;;;;;;;;;;;6.03;100.00;99501.88;6225583;23;19936;-94
2022/09/12 10:51:22;;;;;;;;;;;;;;;6.11;100.00;99491.97;6235259;23;19913;-92
2022/09/12 10:53:48;;;;;;;;;;;;;;;6.05;100.00;99494.78;6254878;22;19917;-91
2022/09/12 10:56:13;;;;;;;;;;;;;;;6.09;100.00;99488.53;6230390;23;19924;-92
2022/09/12 10:58:54;;;;;;;;;;;;;;;6.02;100.00;99485.22;6254760;22;20321;-91
2022/09/12 11:01:30;;;;;;;;;;;;;;;6.06;100.00;99486.00;6128754;23;19920;-90
2022/09/12 11:03:56;;;;;;;;;;;;;;;6.08;100.00;99478.91;6232035;23;19920;-95
2022/09/12 11:06:40;;;;;;;;;;;;;;;6.08;100.00;99479.81;6259506;22;20321;-89
2022/09/12 11:09:34;;;;;;;;;;;;;;;6.12;100.00;99475.31;6124283;23;19913;-96
2022/09/12 11:12:07;;;;;;;;;;;;;;;6.05;100.00;99473.75;6184646;22;19918;-94
2022/09/12 11:14:51;;;;;;;;;;;;;;;6.05;100.00;99473.75;6237313;23;19913;-96
2022/09/12 11:17:35;;;;;;;;;;;;;;;6.02;100.00;99479.13;6236929;23;19920;-93
2022/09/12 11:20:03;;;;;;;;;;;;;;;5.99;100.00;99473.03;6239141;22;19929;-96
2022/09/12 11:22:40;;;;;;;;;;;;;;;6.00;100.00;99479.16;6077421;23;19917;-96
2022/09/12 11:25:18;;;;;;;;;;;;;;;6.07;100.00;99475.44;6075652;23;19914;-94
2022/09/12 11:27:43;;;;;;;;;;;;;;;6.06;100.00;99471.06;6175203;23;19925;-96
2022/09/12 11:30:11;;;;;;;;;;;;;;;6.05;100.00;99469.38;6201371;23;19918;-96
2022/09/12 11:32:42;;;;;;;;;;;;;;;6.11;100.00;99465.69;6076388;23;19920;-95
2022/09/12 11:35:10;;;;;;;;;;;;;;;6.14;100.00;99462.97;6176807;23;19954;-93
2022/09/12 11:37:50;;;;;;;;;;;;;;;6.10;100.00;99454.31;6202253;23;19914;-93
2022/09/12 11:40:34;;;;;;;;;;;;;;;6.04;100.00;99456.25;6197501;23;19918;-90
2022/09/12 11:43:02;;;;;;;;;;;;;;;6.05;100.00;99457.97;6193558;23;20043;-95
2022/09/12 11:45:40;;;;;;;;;;;;;;;6.09;100.00;99459.59;6167398;23;19952;-95
2022/09/12 11:48:13;;;;;;;;;;;;;;;6.16;100.00;99458.53;6166788;23;19916;-92
2022/09/12 11:50:38;;;;;;;;;;;;;;;6.17;100.00;99447.09;6067320;23;19921;-96
2022/09/12 11:53:11;;;;;;;;;;;;;;;6.11;100.00;99447.25;6068841;23;19939;-92
2022/09/12 11:55:55;;;;;;;;;;;;;;;6.12;100.00;99438.47;6166561;23;20301;-93
2022/09/12 11:58:23;;;;;;;;;;;;;;;6.20;100.00;99447.00;6068179;23;19909;-96
2022/09/12 12:00:55;;;;;;;;;;;;;;;6.14;100.00;99441.91;6167534;23;19921;-92
2022/09/12 12:03:29;;;;;;;;;;;;;;;6.15;100.00;99431.34;6161117;22;19983;-94
2022/09/12 12:05:55;;;;;;;;;;;;;;;6.18;100.00;99423.34;6255987;23;19940;-92
2022/09/12 12:08:22;;;;;;;;;;;;;;;6.18;100.00;99411.97;6250146;23;19914;-93
2022/09/12 12:10:50;;;;;;;;;;;;;;;6.13;100.00;99412.13;6218913;23;19911;-95
2022/09/12 12:13:18;;;;;;;;;;;;;;;6.21;100.00;99418.91;6246336;23;19939;-92
2022/09/12 12:15:49;;;;;;;;;;;;;;;6.20;100.00;99415.41;6221363;23;20204;-90
2022/09/12 12:18:25;;;;;;;;;;;;;;;6.16;100.00;99424.34;6218947;23;19911;-94
2022/09/12 12:20:52;;;;;;;;;;;;;;;6.16;100.00;99426.97;6245999;23;19938;-95
2022/09/12 12:23:31;;;;;;;;;;;;;;;6.18;100.00;99427.78;6247308;23;19916;-93
2022/09/12 12:25:57;;;;;;;;;;;;;;;6.20;100.00;99436.47;6219489;23;19919;-94
2022/09/12 12:28:41;;;;;;;;;;;;;;;6.18;100.00;99439.16;6222261;23;19911;-95
2022/09/12 12:31:06;;;;;;;;;;;;;;;6.24;100.00;99430.22;6244376;23;20243;-89
2022/09/12 12:33:32;;;;;;;;;;;;;;;6.22;100.00;99426.75;6246191;23;19919;-89
2022/09/12 12:35:58;;;;;;;;;;;;;;;6.22;100.00;99436.41;6246557;23;19911;-94
2022/09/12 12:38:28;;;;;;;;;;;;;;;6.26;100.00;99425.75;6244432;23;20401;-91
2022/09/12 12:41:13;;;;;;;;;;;;;;;6.20;100.00;99419.81;6216396;23;19919;-93
2022/09/12 12:43:38;;;;;;;;;;;;;;;6.25;100.00;99426.66;6244559;23;19923;-92
2022/09/12 12:46:05;;;;;;;;;;;;;;;6.25;100.00;99418.75;6245640;23;19974;-91
2022/09/12 12:48:34;;;;;;;;;;;;;;;6.53;100.00;99418.75;6244942;23;19915;-86
2022/09/12 12:51:35;;;;;;;;;;;;;;;6.43;100.00;99416.47;6243550;23;19916;-91
2022/09/12 12:54:02;;;;;;;;;;;;;;;6.28;100.00;99410.78;6155845;23;19916;-94
2022/09/12 12:56:38;;;;;;;;;;;;;;;6.22;100.00;99400.44;6206667;23;19911;-91
2022/09/12 12:59:23;;;;;;;;;;;;;;;6.21;100.00;99409.25;6218603;23;19993;-93
2022/09/12 13:01:50;;;;;;;;;;;;;;;6.19;100.00;99400.56;6244489;23;19923;-93
2022/09/12 13:04:18;;;;;;;;;;;;;;;6.19;100.00;99395.31;6218458;23;19916;-93
2022/09/12 13:06:45;;;;;;;;;;;;;;;6.16;100.00;99398.03;6248671;23;19990;-92
2022/09/12 13:09:13;;;;;;;;;;;;;;;6.21;100.00;99398.72;6246987;23;19920;-92
2022/09/12 13:11:40;;;;;;;;;;;;;;;6.20;100.00;99389.09;6246112;23;19966;-91
2022/09/12 13:14:08;;;;;;;;;;;;;;;6.17;100.00;99389.19;6249441;23;19933;-96
2022/09/12 13:16:52;;;;;;;;;;;;;;;6.12;100.00;99383.22;6249134;23;20221;-94
2022/09/12 13:19:37;;;;;;;;;;;;;;;6.16;100.00;99379.59;6251212;23;19919;-93
2022/09/12 13:22:07;;;;;;;;;;;;;;;6.17;100.00;99371.66;6226107;23;19942;-94
2022/09/12 13:24:33;;;;;;;;;;;;;;;6.20;100.00;99367.22;6227444;23;19918;-92
2022/09/12 13:26:59;;;;;;;;;;;;;;;6.21;100.00;99369.78;6251750;23;19918;-94
2022/09/12 13:29:25;;;;;;;;;;;;;;;6.14;100.00;99366.50;6250013;23;19911;-92
2022/09/12 13:32:01;;;;;;;;;;;;;;;6.14;100.00;99363.00;6249118;23;19920;-95
2022/09/12 13:34:30;;;;;;;;;;;;;;;6.15;100.00;99360.31;6223475;23;19958;-91
2022/09/12 13:37:10;;;;;;;;;;;;;;;6.11;100.00;99360.44;6222882;23;20041;-95
2022/09/12 13:39:45;;;;;;;;;;;;;;;6.18;100.00;99354.94;6248091;23;19911;-96
2022/09/12 13:42:19;;;;;;;;;;;;;;;6.18;100.00;99352.31;6251122;23;19947;-92
2022/09/12 13:44:49;;;;;;;;;;;;;;;6.21;100.00;99347.88;6248444;23;19915;-93
2022/09/12 13:47:17;;;;;;;;;;;;;;;6.16;100.00;99342.78;6222473;23;20402;-94
2022/09/12 13:49:44;;;;;;;;;;;;;;;6.20;100.00;99341.75;6222070;23;19916;-94
2022/09/12 13:52:17;;;;;;;;;;;;;;;6.17;100.00;99347.13;6226614;23;19915;-93
2022/09/12 13:54:44;;;;;;;;;;;;;;;6.18;100.00;99338.31;6221291;23;19916;-90
2022/09/12 13:57:26;;;;;;;;;;;;;;;6.19;100.00;99345.31;6249769;23;19912;-92
2022/09/12 13:59:53;;;;;;;;;;;;;;;6.15;100.00;99336.63;6225047;23;19912;-90
2022/09/12 14:02:19;;;;;;;;;;;;;;;6.17;100.00;99336.59;6248709;23;19912;-93
2022/09/12 14:07:33;;;;;;;;;;;;;;;6.12;100.00;99333.25;6249723;23;20250;-94
2022/09/12 14:09:59;;;;;;;;;;;;;;;6.10;100.00;99332.44;6225587;23;19912;-95
2022/09/12 14:12:28;;;;;;;;;;;;;;;6.09;100.00;99333.34;6251542;23;20518;-95
2022/09/12 14:14:53;;;;;;;;;;;;;;;6.19;100.00;99324.28;6250753;23;19920;-93
2022/09/12 14:17:35;;;;;;;;;;;;;;;6.13;100.00;99325.31;6254108;23;19919;-94
2022/09/12 14:20:02;;;;;;;;;;;;;;;6.08;100.00;99321.09;6224120;23;19915;-90
2022/09/12 14:22:28;;;;;;;;;;;;;;;6.10;100.00;99319.28;6246661;23;19930;-94
2022/09/12 14:24:54;;;;;;;;;;;;;;;6.12;100.00;99318.31;6245582;23;19915;-92
2022/09/12 14:27:34;;;;;;;;;;;;;;;6.12;100.00;99317.47;6246746;23;19912;-91
2022/09/12 14:30:20;;;;;;;;;;;;;;;6.07;100.00;99322.03;6246306;23;20180;-91
2022/09/12 14:33:21;;;;;;;;;;;;;;;6.13;100.00;99303.41;6247423;22;19942;-91
2022/09/12 14:35:48;;;;;;;;;;;;;;;6.11;100.00;99305.22;6184239;23;20371;-92
2022/09/12 14:38:16;;;;;;;;;;;;;;;6.20;100.00;99293.53;6233742;23;19955;-93
2022/09/12 14:40:47;;;;;;;;;;;;;;;6.13;100.00;99299.00;6245247;23;19990;-93
2022/09/12 14:43:19;;;;;;;;;;;;;;;6.15;100.00;99296.31;6248931;23;19916;-89
2022/09/12 14:45:50;;;;;;;;;;;;;;;6.18;100.00;99301.50;6247377;23;19911;-90
2022/09/12 14:48:17;;;;;;;;;;;;;;;6.17;100.00;99302.38;6248370;23;20217;-92
2022/09/12 14:50:47;;;;;;;;;;;;;;;6.24;100.00;99297.78;6246470;23;19915;-92
2022/09/12 14:53:15;;;;;;;;;;;;;;;6.15;100.00;99291.91;6247626;23;19940;-91
2022/09/12 14:55:49;;;;;;;;;;;;;;;6.13;100.00;99293.75;6247877;23;19919;-89
2022/09/12 14:58:21;;;;;;;;;;;;;;;6.10;100.00;99288.59;6247404;23;19919;-93
2022/09/12 15:01:01;;;;;;;;;;;;;;;6.10;100.00;99290.34;6247961;23;19911;-92
2022/09/12 15:03:29;;;;;;;;;;;;;;;6.15;100.00;99299.81;6247400;23;19998;-90
2022/09/12 15:05:55;;;;;;;;;;;;;;;6.09;100.00;99294.75;6246430;23;19911;-94
2022/09/12 15:08:20;;;;;;;;;;;;;;;6.11;100.00;99284.16;6220962;23;19969;-92
2022/09/12 15:10:46;;;;;;;;;;;;;;;6.11;100.00;99284.16;6249021;23;19912;-94
2022/09/12 15:13:17;;;;;;;;;;;;;;;6.14;100.00;99284.06;6249269;23;19916;-91
2022/09/12 15:15:47;;;;;;;;;;;;;;;6.13;100.00;99282.38;6250101;23;19998;-92
2022/09/12 15:18:13;;;;;;;;;;;;;;;6.06;100.00;99275.56;6250121;23;19919;-93
2022/09/12 15:20:40;;;;;;;;;;;;;;;6.08;100.00;99279.00;6223094;23;20316;-89
2022/09/12 15:23:09;;;;;;;;;;;;;;;6.13;100.00;99277.97;6221668;23;19911;-90
2022/09/12 15:25:34;;;;;;;;;;;;;;;6.15;100.00;99278.75;6245773;23;19994;-89
2022/09/12 15:28:42;;;;;;;;;;;;;;;;;;;;;
2022/09/12 15:31:24;;;;;;;;;;;;;;;6.09;100.00;99281.59;6216581;23;19990;-93
2022/09/12 15:33:49;;;;;;;;;;;;;;;6.09;100.00;99276.31;6221887;23;19912;-91
2022/09/12 15:36:18;;;;;;;;;;;;;;;6.15;100.00;99277.91;6248807;23;19939;-92
2022/09/12 15:38:44;;;;;;;;;;;;;;;6.13;100.00;99277.97;6221281;23;19912;-88
2022/09/12 15:41:15;;;;;;;;;;;;;;;6.17;100.00;99278.72;6248607;23;19958;-92
2022/09/12 15:43:40;;;;;;;;;;;;;;;6.14;100.00;99281.44;6250687;23;19920;-88
2022/09/12 15:46:09;;;;;;;;;;;;;;;6.18;100.00;99276.03;6249773;23;20351;-92
2022/09/12 15:48:34;;;;;;;;;;;;;;;6.14;100.00;99279.69;6220158;23;20332;-88
2022/09/12 15:51:03;;;;;;;;;;;;;;;6.17;100.00;99279.59;6254676;23;19950;-87
2022/09/12 15:53:29;;;;;;;;;;;;;;;6.14;100.00;99277.06;6236588;23;19918;-90
2022/09/12 15:55:57;;;;;;;;;;;;;;;6.11;100.00;99279.78;6252546;23;19915;-92
2022/09/12 15:58:23;;;;;;;;;;;;;;;6.21;100.00;99280.34;6221553;23;19938;-91
2022/09/12 16:00:48;;;;;;;;;;;;;;;6.15;100.00;99280.53;6250525;23;19915;-88
2022/09/12 16:03:21;;;;;;;;;;;;;;;6.12;100.00;99280.63;6249485;23;19919;-88
2022/09/12 16:05:47;;;;;;;;;;;;;;;6.21;100.00;99274.19;6251145;23;19966;-85
2022/09/12 16:08:13;;;;;;;;;;;;;;;6.22;100.00;99275.94;6251738;23;19919;-92
2022/09/12 16:10:38;;;;;;;;;;;;;;;6.17;100.00;99270.81;6247417;23;19912;-90
2022/09/12 16:13:03;;;;;;;;;;;;;;;6.19;100.00;99269.03;6223644;23;19916;-92
2022/09/12 16:15:29;;;;;;;;;;;;;;;6.19;100.00;99269.03;6220876;23;19919;-89
2022/09/12 16:18:04;;;;;;;;;;;;;;;6.17;100.00;99262.94;6246198;23;19916;-91
2022/09/12 16:20:30;;;;;;;;;;;;;;;6.18;100.00;99264.66;6219750;23;19912;-91
2022/09/12 16:22:55;;;;;;;;;;;;;;;6.19;100.00;99261.13;6245017;23;19918;-89
2022/09/12 16:25:20;;;;;;;;;;;;;;;6.21;100.00;99248.78;6217469;23;19922;-90
2022/09/12 16:27:45;;;;;;;;;;;;;;;6.18;100.00;99254.13;6220344;23;19908;-92
2022/09/12 16:30:12;;;;;;;;;;;;;;;6.21;100.00;99253.16;6246334;23;19942;-94
2022/09/12 16:32:38;;;;;;;;;;;;;;;15.71;100.00;99227.88;6246123;23;19912;-86
2022/09/12 16:35:03;;;;;;;;;;;;;;;9.47;100.00;99244.56;6244955;23;20220;-88
2022/09/12 16:37:30;;;;;;;;;;;;;;;7.71;100.00;99244.19;6244313;23;19911;-88
2022/09/12 16:39:55;;;;;;;;;;;;;;;7.19;100.00;99254.09;6215645;23;19934;-88
2022/09/12 16:42:20;;;;;;;;;;;;;;;6.95;100.00;99247.97;6244561;23;19915;-89
2022/09/12 16:44:46;;;;;;;;;;;;;;;6.85;100.00;99250.94;6216739;23;20336;-84
2022/09/12 16:47:14;;;;;;;;;;;;;;;6.73;100.00;99257.50;6217772;23;19994;-88
2022/09/12 16:49:39;;;;;;;;;;;;;;;6.66;100.00;99250.72;6245000;23;19915;-87
2022/09/12 16:52:05;;;;;;;;;;;;;;;6.66;100.00;99253.34;6247706;23;19937;-92
2022/09/12 16:54:30;;;;;;;;;;;;;;;6.61;100.00;99244.75;6244872;23;19916;-88
2022/09/12 16:56:55;;;;;;;;;;;;;;;6.58;100.00;99244.03;6221103;23;19919;-89
2022/09/12 16:59:21;;;;;;;;;;;;;;;6.54;100.00;99238.88;6251481;23;19916;-90
2022/09/12 17:01:46;;;;;;;;;;;;;;;6.51;100.00;99235.44;6226720;23;19923;-85
2022/09/12 17:04:11;;;;;;;;;;;;;;;6.50;100.00;99239.88;6249597;23;19915;-85
2022/09/12 17:06:37;;;;;;;;;;;;;;;6.49;100.00;99234.66;6224416;23;19987;-82
2022/09/12 17:09:03;;;;;;;;;;;;;;;6.41;100.00;99234.91;6244568;23;19916;-90
2022/09/12 17:11:32;;;;;;;;;;;;;;;6.42;100.00;99235.81;6223913;23;19915;-85
2022/09/12 17:13:58;;;;;;;;;;;;;;;6.43;100.00;99232.22;6228537;23;19919;-90
2022/09/12 17:16:24;;;;;;;;;;;;;;;6.38;100.00;99232.38;6225769;23;19919;-92
2022/09/12 17:18:50;;;;;;;;;;;;;;;6.38;100.00;99239.44;6253354;23;20311;-82
2022/09/12 17:21:16;;;;;;;;;;;;;;;6.44;100.00;99240.06;6225735;23;19919;-86
2022/09/12 17:23:45;;;;;;;;;;;;;;;6.42;100.00;99235.81;6225546;23;20231;-88
2022/09/12 17:26:10;;;;;;;;;;;;;;;6.43;100.00;99234.88;6253853;23;20457;-86
2022/09/12 17:28:36;;;;;;;;;;;;;;;6.41;100.00;99228.81;6224995;23;19922;-92
2022/09/12 17:31:03;;;;;;;;;;;;;;;6.40;100.00;99229.72;6223559;23;20041;-84
2022/09/12 17:33:28;;;;;;;;;;;;;;;6.45;100.00;99236.53;6225619;23;19919;-92
2022/09/12 17:35:54;;;;;;;;;;;;;;;6.33;100.00;99243.09;6223203;23;19911;-93
2022/09/12 17:38:20;;;;;;;;;;;;;;;6.40;100.00;99233.22;6220670;23;20240;-92
2022/09/12 17:40:45;;;;;;;;;;;;;;;6.41;100.00;99234.06;6219546;23;19918;-86
2022/09/12 17:43:14;;;;;;;;;;;;;;;6.39;100.00;99243.81;6220656;23;19927;-89
2022/09/12 17:45:39;;;;;;;;;;;;;;;6.43;100.00;99237.50;6221034;23;19994;-87
2022/09/12 17:48:06;;;;;;;;;;;;;;;6.45;100.00;99238.31;6222127;23;19911;-87
2022/09/12 17:50:35;;;;;;;;;;;;;;;6.45;100.00;99225.16;6221917;23;19922;-86
2022/09/12 17:53:01;;;;;;;;;;;;;;;6.45;100.00;99230.44;6223640;23;19919;-87
2022/09/12 17:55:26;;;;;;;;;;;;;;;6.41;100.00;99234.06;6247275;23;19986;-85
2022/09/12 17:57:51;;;;;;;;;;;;;;;6.39;100.00;99246.44;6220987;23;19922;-83
2022/09/12 18:02:11;;;;;;;;;;;;;;;6.39;100.00;99247.28;6251202;23;20296;-91
2022/09/12 18:03:02;;;;;;;;;;;;;;;6.43;100.00;99242.75;6250118;22;19943;-87
2022/09/12 18:05:27;;;;;;;;;;;;;;;6.41;100.00;99249.88;6249801;23;19912;-90
2022/09/12 18:07:52;;;;;;;;;;;;;;;6.42;100.00;99248.97;6250572;23;19996;-88
2022/09/12 18:10:17;;;;;;;;;;;;;;;6.38;100.00;99249.97;6225853;23;20316;-87
2022/09/12 18:12:43;;;;;;;;;;;;;;;6.36;100.00;99245.59;6253510;23;19907;-82
2022/09/12 18:15:08;;;;;;;;;;;;;;;6.40;100.00;99253.41;6227826;23;19912;-87
2022/09/12 18:17:34;;;;;;;;;;;;;;;6.36;100.00;99248.22;6254067;23;19915;-88
2022/09/12 18:19:59;;;;;;;;;;;;;;;6.36;100.00;99248.22;6227617;23;20014;-88
2022/09/12 18:22:25;;;;;;;;;;;;;;;6.34;100.00;99250.06;6225908;23;19912;-83
2022/09/12 18:24:50;;;;;;;;;;;;;;;6.38;100.00;99249.97;6259057;23;19951;-83
2022/09/12 18:27:15;;;;;;;;;;;;;;;6.38;100.00;99244.69;6233764;23;19911;-84
2022/09/12 18:29:41;;;;;;;;;;;;;;;6.43;100.00;99248.03;6256814;23;19957;-86
2022/09/12 18:32:06;;;;;;;;;;;;;;;6.41;100.00;99255.13;6229013;23;20339;-86
2022/09/12 18:34:35;;;;;;;;;;;;;;;6.43;100.00;99248.03;6254961;23;20250;-83
2022/09/12 18:37:04;;;;;;;;;;;;;;;6.45;100.00;99252.34;6254898;23;19915;-86
2022/09/12 18:39:29;;;;;;;;;;;;;;;6.44;100.00;99244.50;6253589;23;19963;-84
2022/09/12 18:41:54;;;;;;;;;;;;;;;6.45;100.00;99241.81;6229136;23;20244;-90
2022/09/12 18:44:19;;;;;;;;;;;;;;;6.50;100.00;99254.81;6227382;23;19915;-94
2022/09/12 18:46:45;;;;;;;;;;;;;;;6.48;100.00;99256.66;6227559;23;19958;-91
2022/09/12 18:49:10;;;;;;;;;;;;;;;6.44;100.00;99270.81;6227691;23;19922;-84
2022/09/12 18:51:36;;;;;;;;;;;;;;;6.45;100.00;99272.53;6250672;23;20404;-92
2022/09/12 18:54:02;;;;;;;;;;;;;;;6.46;100.00;99267.22;6253463;23;19918;-88
2022/09/12 18:56:33;;;;;;;;;;;;;;;6.50;100.00;99271.47;6227948;23;20278;-84
2022/09/12 18:58:58;;;;;;;;;;;;;;;6.50;100.00;99265.34;6228163;23;19947;-89
2022/09/12 19:01:25;;;;;;;;;;;;;;;6.43;100.00;99262.06;6232113;23;19919;-85
2022/09/12 19:03:51;;;;;;;;;;;;;;;6.46;100.00;99263.72;6232526;23;19919;-85
2022/09/12 19:06:19;;;;;;;;;;;;;;;6.42;100.00;99262.13;6259092;23;19990;-83
2022/09/12 19:08:45;;;;;;;;;;;;;;;6.40;100.00;99262.16;6254250;23;19912;-89
2022/09/12 19:11:10;;;;;;;;;;;;;;;6.38;100.00;99260.50;6229613;23;19969;-88
2022/09/12 19:13:36;;;;;;;;;;;;;;;6.42;100.00;99248.97;6224788;23;20286;-86
2022/09/12 19:16:03;;;;;;;;;;;;;;;6.39;100.00;99249.91;6261982;23;19912;-85
2022/09/12 19:18:30;;;;;;;;;;;;;;;6.35;100.00;99249.16;6263835;23;19922;-93
2022/09/12 19:20:55;;;;;;;;;;;;;;;6.39;100.00;99251.69;6257901;23;20316;-91
2022/09/12 19:23:21;;;;;;;;;;;;;;;6.41;100.00;99247.22;6233452;23;19942;-84
2022/09/12 19:25:57;;;;;;;;;;;;;;;6.42;100.00;99246.31;6234224;23;19919;-84
2022/09/12 19:28:22;;;;;;;;;;;;;;;6.34;100.00;99247.44;6261519;23;20120;-89
2022/09/12 19:30:47;;;;;;;;;;;;;;;6.38;100.00;99245.53;6232746;23;19942;-84
2022/09/12 19:33:13;;;;;;;;;;;;;;;6.40;100.00;99245.50;6255506;23;19908;-85
2022/09/12 19:35:38;;;;;;;;;;;;;;;6.31;100.00;99237.00;6234559;23;19978;-86
2022/09/12 19:38:03;;;;;;;;;;;;;;;6.35;100.00;99225.47;6260992;23;19934;-81
2022/09/12 19:40:28;;;;;;;;;;;;;;;6.38;100.00;99223.66;6263524;23;19911;-90
2022/09/12 19:42:54;;;;;;;;;;;;;;;6.44;100.00;99216.38;6262018;23;19912;-87
2022/09/12 19:45:19;;;;;;;;;;;;;;;6.45;100.00;99212.00;6256524;23;19915;-95
2022/09/12 19:47:44;;;;;;;;;;;;;;;6.35;100.00;99201.78;6253628;23;19915;-85
2022/09/12 19:50:10;;;;;;;;;;;;;;;6.40;100.00;99208.66;6262419;23;20247;-90
2022/09/12 19:52:35;;;;;;;;;;;;;;;6.36;100.00;99192.97;6231058;23;19908;-91
2022/09/12 19:55:00;;;;;;;;;;;;;;;6.41;100.00;99189.34;6227534;23;19944;-91
2022/09/12 19:57:25;;;;;;;;;;;;;;;6.40;100.00;99190.22;6222290;23;19931;-90
2022/09/12 19:59:50;;;;;;;;;;;;;;;6.41;100.00;99190.19;6246381;23;19911;-93
2022/09/12 20:02:16;;;;;;;;;;;;;;;6.40;100.00;99196.38;6225149;23;19977;-93
2022/09/12 20:04:41;;;;;;;;;;;;;;;6.37;100.00;99201.75;6227585;23;19963;-86
2022/09/12 20:07:07;;;;;;;;;;;;;;;6.37;100.00;99201.75;6230109;23;19966;-91
2022/09/12 20:09:32;;;;;;;;;;;;;;;6.38;100.00;99208.72;6223037;23;20320;-94
2022/09/12 20:11:58;;;;;;;;;;;;;;;6.40;100.00;99211.28;6254558;23;19918;-91
2022/09/12 20:14:23;;;;;;;;;;;;;;;6.34;100.00;99217.63;6236001;23;19934;-90
2022/09/12 20:16:48;;;;;;;;;;;;;;;6.27;100.00;99229.28;6262802;23;19942;-90
2022/09/12 20:19:14;;;;;;;;;;;;;;;6.33;100.00;99231.69;6236975;23;20339;-84
2022/09/12 20:21:39;;;;;;;;;;;;;;;6.34;100.00;99225.53;6236440;23;19934;-86
2022/09/12 20:24:06;;;;;;;;;;;;;;;6.35;100.00;99221.97;6170280;23;19963;-84
2022/09/12 20:26:31;;;;;;;;;;;;;;;6.36;100.00;99215.81;6107635;23;19914;-91
2022/09/12 20:28:57;;;;;;;;;;;;;;;6.43;100.00;99216.44;6107604;23;19932;-87